createdAt,value
2023-04-19T00:00:34.404Z,26.40
2023-04-19T00:05:40.104Z,26.40
2023-04-19T00:10:48.357Z,26.40
2023-04-19T00:15:53.911Z,26.40
2023-04-19T00:20:59.597Z,26.50
2023-04-19T00:26:05.582Z,26.50
2023-04-19T00:31:11.099Z,26.60
2023-04-19T00:36:17.573Z,26.70
2023-04-19T00:41:25.590Z,26.70
2023-04-19T00:46:32.180Z,26.80
2023-04-19T00:51:38.269Z,26.90
2023-04-19T00:56:46.765Z,26.90
2023-04-19T01:01:53.544Z,26.90
2023-04-19T01:07:03.182Z,27.00
2023-04-19T01:12:09.765Z,27.10
2023-04-19T01:17:16.992Z,27.30
2023-04-19T01:22:24.555Z,27.50
2023-04-19T01:27:30.314Z,27.90
2023-04-19T01:32:35.846Z,28.30
2023-04-19T01:37:41.399Z,28.40
2023-04-19T01:42:48.155Z,28.30
2023-04-19T01:47:54.186Z,28.30
2023-04-19T01:53:00.180Z,28.30
2023-04-19T01:58:05.661Z,28.30
2023-04-19T02:03:11.717Z,28.50
2023-04-19T02:08:17.463Z,28.50
2023-04-19T02:13:23.124Z,28.60
2023-04-19T02:18:27.833Z,28.80
2023-04-19T02:23:34.560Z,28.90
2023-04-19T02:28:44.639Z,29.00
2023-04-19T02:33:51.340Z,29.10
2023-04-19T02:38:56.526Z,29.20
2023-04-19T02:44:04.987Z,29.40
2023-04-19T02:49:12.160Z,30.10
2023-04-19T02:54:17.818Z,31.00
2023-04-19T02:59:24.162Z,31.20
2023-04-19T03:04:30.852Z,31.10
2023-04-19T03:09:37.184Z,30.80
2023-04-19T03:14:42.479Z,30.70
2023-04-19T03:19:48.864Z,30.60
2023-04-19T03:24:54.797Z,30.60
2023-04-19T03:30:01.630Z,30.50
2023-04-19T03:35:09.065Z,31.30
2023-04-19T03:40:15.024Z,31.90
2023-04-19T03:45:21.054Z,32.50
2023-04-19T03:50:27.202Z,32.80
2023-04-19T03:55:34.615Z,32.60
2023-04-19T04:00:40.338Z,32.50
2023-04-19T04:05:45.999Z,32.20
2023-04-19T04:10:52.012Z,31.90
2023-04-19T04:15:59.891Z,31.70
2023-04-19T04:21:09.392Z,31.90
2023-04-19T04:26:19.546Z,32.00
2023-04-19T04:31:37.923Z,31.80
2023-04-19T04:36:51.135Z,31.90
2023-04-19T04:42:02.022Z,32.30
2023-04-19T04:47:07.312Z,32.70
2023-04-19T04:52:19.906Z,32.80
2023-04-19T04:57:49.694Z,32.90
2023-04-19T05:03:15.663Z,33.20
2023-04-19T05:08:28.584Z,33.40
2023-04-19T05:13:42.337Z,33.80
2023-04-19T05:18:51.803Z,34.60
2023-04-19T05:23:58.395Z,35.20
2023-04-19T05:29:04.050Z,34.40
2023-04-19T05:34:22.050Z,33.80
2023-04-19T05:39:29.045Z,33.60
2023-04-19T05:44:36.800Z,33.40
2023-04-19T05:49:43.728Z,32.90
2023-04-19T05:55:00.955Z,32.60
2023-04-19T06:00:07.562Z,32.60
2023-04-19T06:05:19.210Z,33.30
2023-04-19T06:10:29.011Z,33.90
2023-04-19T06:15:41.486Z,33.70
2023-04-19T06:20:46.917Z,33.00
2023-04-19T06:25:52.322Z,32.70
2023-04-19T06:30:58.062Z,32.90
2023-04-19T06:36:06.968Z,33.90
2023-04-19T06:41:12.598Z,34.60
2023-04-19T06:46:21.258Z,34.90
2023-04-19T06:51:27.501Z,35.20
2023-04-19T06:56:47.714Z,35.10
2023-04-19T07:01:53.889Z,35.20
2023-04-19T07:07:00.156Z,35.20
2023-04-19T07:12:06.926Z,36.00
2023-04-19T07:17:12.710Z,36.80
2023-04-19T07:22:19.592Z,36.60
2023-04-19T07:27:25.962Z,37.30
2023-04-19T07:32:33.216Z,37.80
2023-04-19T07:37:39.235Z,37.60
2023-04-19T07:42:46.515Z,37.40
2023-04-19T07:47:52.994Z,37.00
2023-04-19T07:53:02.791Z,37.20
2023-04-19T07:58:14.392Z,37.50
2023-04-19T08:03:20.878Z,37.50
2023-04-19T08:08:27.953Z,37.20
2023-04-19T08:13:34.302Z,37.00
2023-04-19T08:18:40.723Z,36.30
2023-04-19T08:23:48.538Z,35.70
2023-04-19T08:29:06.236Z,35.30
2023-04-19T08:34:12.488Z,34.70
2023-04-19T08:39:29.667Z,34.20
2023-04-19T08:44:53.803Z,33.90
2023-04-19T08:50:24.185Z,33.60
2023-04-19T08:55:40.087Z,33.70
2023-04-19T09:00:49.621Z,33.50
2023-04-19T09:05:55.935Z,33.40
2023-04-19T09:11:03.908Z,33.30
2023-04-19T09:16:25.446Z,33.20
2023-04-19T09:21:35.830Z,33.10
2023-04-19T09:26:42.703Z,32.80
2023-04-19T09:32:00.758Z,32.70
2023-04-19T09:37:27.937Z,32.60
2023-04-19T09:48:05.913Z,32.10
2023-04-19T09:53:13.272Z,31.90
2023-04-19T09:58:20.978Z,31.70
2023-04-19T10:03:31.756Z,31.50
2023-04-19T10:08:37.761Z,31.30
2023-04-19T10:13:46.757Z,31.00
2023-04-19T10:18:53.918Z,30.90
2023-04-19T10:24:01.385Z,30.70
2023-04-19T10:29:07.888Z,30.60
2023-04-19T10:34:15.882Z,30.40
2023-04-19T10:39:43.741Z,30.20
2023-04-19T10:45:38.085Z,30.10
2023-04-19T10:56:43.715Z,29.80
2023-04-19T11:01:58.160Z,29.60
2023-04-19T11:07:10.674Z,29.40
2023-04-19T11:12:18.945Z,29.20
2023-04-19T11:17:34.589Z,29.00
2023-04-19T11:23:44.170Z,28.80
2023-04-19T11:28:50.783Z,28.70
2023-04-19T11:34:04.966Z,28.60
2023-04-19T11:39:48.533Z,28.60
2023-04-19T11:51:19.076Z,28.50
2023-04-19T11:56:50.800Z,28.30
2023-04-19T12:02:26.852Z,28.30
2023-04-19T12:08:00.857Z,28.20
2023-04-19T12:13:47.107Z,28.10
2023-04-19T12:19:18.391Z,28.00
2023-04-19T12:24:29.495Z,27.90
2023-04-19T12:29:40.826Z,27.90
2023-04-19T12:34:54.587Z,27.70
2023-04-19T12:40:05.428Z,27.60
2023-04-19T12:45:22.960Z,27.60
2023-04-19T12:56:14.300Z,27.60
2023-04-19T13:01:52.531Z,27.40
2023-04-19T13:07:28.209Z,27.30
2023-04-19T13:13:01.066Z,27.10
2023-04-19T13:18:32.250Z,27.00
2023-04-19T13:24:26.151Z,26.90
2023-04-19T13:29:47.660Z,26.90
2023-04-19T13:35:43.452Z,26.80
2023-04-19T13:42:01.602Z,26.80
2023-04-19T13:53:24.401Z,26.70
2023-04-19T13:58:37.247Z,26.50
2023-04-19T14:03:50.845Z,26.60
2023-04-19T14:08:59.354Z,26.60
2023-04-19T14:14:10.269Z,26.60
2023-04-19T14:19:26.822Z,26.60
2023-04-19T14:24:35.292Z,26.60
2023-04-19T14:29:56.330Z,26.60
2023-04-19T14:35:09.298Z,26.70
2023-04-19T14:40:28.575Z,26.60
2023-04-19T14:45:37.328Z,26.60
2023-04-19T14:50:46.210Z,26.50
2023-04-19T14:55:56.593Z,26.60
2023-04-19T15:01:17.217Z,26.60
2023-04-19T15:06:23.932Z,26.50
2023-04-19T15:11:36.189Z,26.30
2023-04-19T15:16:42.333Z,26.30
2023-04-19T15:21:53.596Z,26.30
2023-04-19T15:27:07.018Z,26.30
2023-04-19T15:32:14.134Z,26.20
2023-04-19T15:37:20.835Z,26.10
2023-04-19T15:42:31.089Z,26.10
2023-04-19T15:47:38.221Z,26.00
2023-04-19T15:52:47.999Z,26.00
2023-04-19T15:58:00.443Z,25.90
2023-04-19T16:03:21.668Z,26.00
2023-04-19T16:08:38.202Z,26.00
2023-04-19T16:13:46.721Z,25.90
2023-04-19T16:18:53.450Z,26.00
2023-04-19T16:24:02.948Z,25.90
2023-04-19T16:29:09.761Z,26.00
2023-04-19T16:34:15.992Z,25.90
2023-04-19T16:39:22.454Z,25.80
2023-04-19T16:44:29.069Z,25.80
2023-04-19T16:49:35.314Z,25.80
2023-04-19T16:54:45.466Z,25.80
2023-04-19T16:59:54.120Z,25.80
2023-04-19T17:05:02.730Z,25.80
2023-04-19T17:10:09.728Z,25.80
2023-04-19T17:21:08.119Z,26.00
2023-04-19T17:26:14.265Z,25.90
2023-04-19T17:31:25.796Z,25.80
2023-04-19T17:36:33.463Z,25.90
2023-04-19T17:41:39.601Z,25.90
2023-04-19T17:46:57.185Z,25.90
2023-04-19T17:52:03.783Z,25.90
2023-04-19T17:57:10.070Z,25.90
2023-04-19T18:02:15.953Z,25.90
2023-04-19T18:07:22.205Z,25.90
2023-04-19T18:12:28.460Z,25.90
2023-04-19T18:17:34.384Z,26.00
2023-04-19T18:22:40.207Z,25.90
2023-04-19T18:27:45.374Z,25.90
2023-04-19T18:32:51.585Z,26.00
2023-04-19T18:37:57.877Z,26.00
2023-04-19T18:43:03.410Z,25.90
2023-04-19T18:48:09.349Z,26.00
2023-04-19T18:53:14.979Z,26.00
2023-04-19T18:58:21.009Z,25.90
2023-04-19T19:08:35.445Z,25.80
2023-04-19T19:13:42.441Z,25.90
2023-04-19T19:18:48.261Z,25.90
2023-04-19T19:23:57.970Z,25.80
2023-04-19T19:29:05.816Z,25.80
2023-04-19T19:34:27.172Z,25.90
2023-04-19T19:39:36.735Z,25.80
2023-04-19T19:44:42.697Z,25.80
2023-04-19T19:50:21.338Z,25.90
2023-04-19T19:55:15.451Z,25.80
2023-04-19T20:05:30.960Z,25.90
2023-04-19T20:10:37.303Z,25.80
2023-04-19T20:15:43.974Z,25.80
2023-04-19T20:20:49.897Z,25.80
2023-04-19T20:25:55.430Z,25.80
2023-04-19T20:31:01.131Z,25.90
2023-04-19T20:36:06.395Z,25.90
2023-04-19T20:41:12.662Z,25.90
2023-04-19T20:46:18.781Z,25.90
2023-04-19T20:51:24.616Z,25.80
2023-04-19T20:56:30.604Z,25.80
2023-04-19T21:01:36.683Z,25.70
2023-04-19T21:06:43.223Z,25.70
2023-04-19T21:11:49.437Z,25.80
2023-04-19T21:16:54.850Z,25.80
2023-04-19T21:22:01.502Z,25.80
2023-04-19T21:27:07.207Z,25.70
2023-04-19T21:32:14.055Z,25.70
2023-04-19T21:37:21.580Z,25.80
2023-04-19T21:42:27.760Z,25.80
2023-04-19T21:47:33.583Z,25.80
2023-04-19T21:52:38.786Z,25.80
2023-04-19T21:57:45.344Z,25.80
2023-04-19T22:02:51.436Z,25.80
2023-04-19T22:07:59.130Z,25.80
2023-04-19T22:13:06.757Z,25.80
2023-04-19T22:18:12.963Z,25.80
2023-04-19T22:23:18.823Z,25.80
2023-04-19T22:28:23.751Z,25.80
2023-04-19T22:33:29.926Z,25.80
2023-04-19T22:38:36.189Z,25.90
2023-04-19T22:43:42.596Z,25.90
2023-04-19T22:48:49.748Z,25.80
2023-04-19T22:53:55.822Z,25.90
2023-04-19T22:59:01.726Z,25.90
2023-04-19T23:04:07.604Z,26.00
2023-04-19T23:09:15.558Z,26.00
2023-04-19T23:14:23.982Z,26.00
2023-04-19T23:19:29.496Z,26.10
2023-04-19T23:24:37.621Z,26.10
2023-04-19T23:29:43.305Z,26.10
2023-04-19T23:34:49.248Z,26.10
2023-04-19T23:39:55.118Z,26.10
2023-04-19T23:45:00.989Z,26.20
2023-04-19T23:50:06.608Z,26.20
2023-04-19T23:55:12.645Z,26.20
